»·PEaware :: N374ED KYKM-KSEA

N374ED :: KYKM-KSEA

FLIGHT INFORMATION

Flight Status: Arrived
Operator: Privately registered:
United States
More flights under this callsign
Pilot: Eric D. (9648)
Aircraft: BEECH AIRCRAFT BARON
(BE58)
More flights by this aircraft type
Origin: KYKM Yakima Air Term/Mcallister
United States
Destination: KSEA Seattle-Tacoma Intl
United States
More flights between these airports :: More routes between these airports
Route: WENAS7 TITON V4 SEA
File this flight plan on PilotEdge
Remarks:
Altitude:
(Current/Filed)
10,000ft
Speed:
(Current/Filed)
180kts
Departed: 29-Apr-20 02:04 PM
Arrived: 29-Apr-20 02:52 PM
Distance/Time
Traveled:
89nm/0:48
Distance/Time
To Go:
Arrived

Flight Plot

Page will automatically refresh every two minutes.


Map Options




Map Legend


Flown Route
Filed Route
Departure Airport
Arrival Airport
Navaid (VOR, NDB)
Fix

Horizontal Profiles

Position Reports

Time Latitude Longitude Heading Altitude Ground
Speed
29-Apr-20 13:46 46.571504 -120.547977 91 1082ft 0kts
29-Apr-20 13:47 46.571504 -120.547977 91 1082ft 0kts
29-Apr-20 13:48 46.571504 -120.547977 91 1082ft 0kts
29-Apr-20 13:49 46.571504 -120.547977 91 1082ft 0kts
29-Apr-20 13:50 46.571504 -120.547977 91 1082ft 0kts
29-Apr-20 13:51 46.571504 -120.547977 91 1082ft 0kts
29-Apr-20 13:52 46.571504 -120.547977 91 1082ft 0kts
29-Apr-20 13:53 46.571504 -120.547977 91 1082ft 0kts
29-Apr-20 13:54 46.571504 -120.547977 91 1082ft 0kts
29-Apr-20 13:55 46.571318 -120.547758 178 1082ft 0kts
29-Apr-20 13:56 46.570661 -120.547303 105 1080ft 10kts
29-Apr-20 13:57 46.569132 -120.541222 108 1069ft 16kts
29-Apr-20 13:58 46.567545 -120.534860 109 1057ft 16kts
29-Apr-20 13:59 46.566587 -120.531540 160 1051ft 0kts
29-Apr-20 14:00 46.566587 -120.531540 160 1051ft 0kts
29-Apr-20 14:01 46.566587 -120.531540 160 1051ft 0kts
29-Apr-20 14:02 46.565993 -120.531489 180 1051ft 11kts
29-Apr-20 14:03 46.570719 -120.554426 284 1630ft 105kts
29-Apr-20 14:04 46.580682 -120.596084 283 3152ft 115kts
29-Apr-20 14:05 46.583801 -120.641470 282 4613ft 111kts
29-Apr-20 14:06 46.599829 -120.662681 18 6034ft 100kts
29-Apr-20 14:07 46.627789 -120.643967 26 7070ft 118kts
29-Apr-20 14:08 46.657611 -120.636752 319 8043ft 111kts
29-Apr-20 14:09 46.689959 -120.653570 318 8720ft 131kts
29-Apr-20 14:10 46.702573 -120.694390 280 9802ft 106kts
29-Apr-20 14:11 46.713176 -120.741843 293 10043ft 147kts
29-Apr-20 14:12 46.737281 -120.795482 298 10041ft 164kts
29-Apr-20 14:13 46.763648 -120.851559 299 10046ft 169kts
29-Apr-20 14:14 46.790472 -120.908418 298 10049ft 170kts
29-Apr-20 14:15 46.817442 -120.965670 298 10053ft 171kts
29-Apr-20 14:16 46.844436 -121.022992 298 10071ft 170kts
29-Apr-20 14:17 46.871299 -121.080188 297 10080ft 171kts
29-Apr-20 14:18 46.898233 -121.137639 297 10082ft 171kts
29-Apr-20 14:19 46.925253 -121.195398 296 10082ft 172kts
29-Apr-20 14:20 46.952388 -121.253571 296 10079ft 173kts
29-Apr-20 14:21 46.979736 -121.312313 296 10075ft 175kts
29-Apr-20 14:22 47.007352 -121.371748 295 10071ft 177kts
29-Apr-20 14:23 47.035298 -121.432022 295 10066ft 179kts
29-Apr-20 14:25 47.063402 -121.492773 295 10065ft 181kts
29-Apr-20 14:26 47.091935 -121.554593 295 10066ft 184kts
29-Apr-20 14:27 47.120984 -121.617662 295 10059ft 185kts
29-Apr-20 14:28 47.150206 -121.681262 294 10062ft 187kts
29-Apr-20 14:29 47.179749 -121.745702 294 10025ft 190kts
29-Apr-20 14:30 47.209160 -121.809994 294 10025ft 188kts
29-Apr-20 14:31 47.236418 -121.872630 293 10212ft 178kts
29-Apr-20 14:32 47.264634 -121.930526 294 9564ft 167kts
29-Apr-20 14:33 47.291068 -121.988196 294 8906ft 171kts
29-Apr-20 14:34 47.316809 -122.047549 295 8154ft 173kts
29-Apr-20 14:35 47.343582 -122.106358 294 7372ft 172kts
29-Apr-20 14:36 47.371946 -122.168366 297 6561ft 186kts
29-Apr-20 14:37 47.400301 -122.231949 298 6011ft 183kts
29-Apr-20 14:38 47.428306 -122.294806 297 5488ft 181kts
29-Apr-20 14:39 47.472606 -122.333606 334 5075ft 189kts
29-Apr-20 14:40 47.521667 -122.362681 334 5061ft 189kts
29-Apr-20 14:40 47.562464 -122.387306 334 5067ft 189kts
29-Apr-20 14:42 47.619265 -122.421030 335 4576ft 185kts
29-Apr-20 14:43 47.658918 -122.407359 92 3738ft 155kts
29-Apr-20 14:43 47.653553 -122.357887 121 3118ft 137kts
29-Apr-20 14:44 47.624656 -122.331880 158 2955ft 115kts
29-Apr-20 14:46 47.589371 -122.317729 180 2770ft 110kts
29-Apr-20 14:46 47.568122 -122.317753 180 2585ft 85kts
29-Apr-20 14:47 47.543109 -122.317070 179 2273ft 92kts
29-Apr-20 14:48 47.517408 -122.317666 178 1816ft 91kts
29-Apr-20 14:49 47.492574 -122.317528 177 1360ft 87kts
29-Apr-20 14:50 47.467204 -122.317910 180 730ft 89kts
29-Apr-20 14:51 47.448023 -122.318007 180 436ft 34kts
29-Apr-20 14:52 47.444792 -122.316497 150 436ft 7kts
29-Apr-20 14:53 47.443102 -122.315074 140 436ft 0kts
29-Apr-20 14:54 47.441640 -122.313586 180 436ft 15kts
29-Apr-20 14:55 47.438302 -122.315616 172 436ft 7kts
29-Apr-20 14:56 47.438377 -122.315449 357 436ft 0kts
29-Apr-20 14:57 47.438377 -122.315449 357 436ft 0kts
29-Apr-20 14:58 47.438377 -122.315449 357 436ft 0kts
29-Apr-20 14:59 47.438377 -122.315449 357 436ft 0kts
29-Apr-20 15:00 47.438377 -122.315449 357 436ft 0kts
29-Apr-20 15:01 47.438377 -122.315449 357 436ft 0kts
29-Apr-20 15:02 47.438377 -122.315449 357 436ft 0kts
29-Apr-20 15:03 47.438377 -122.315449 357 436ft 0kts
29-Apr-20 15:04 47.438377 -122.315449 357 436ft 0kts
29-Apr-20 15:05 47.438377 -122.315449 357 436ft 0kts

Navigation Log

Ident Type
Flight plan parsing failed, navigation log unavailable